sensor_id;sensor_type;location;lat;lon;timestamp;pressure;altitude;pressure_sealevel;temperature;humidity
30463;BME280;17256;43.618;25.336;2022-10-31T00:01:36;100522.97;;;12.35;100.00
30463;BME280;17256;43.618;25.336;2022-10-31T00:04:05;100740.38;;;13.69;100.00
30463;BME280;17256;43.618;25.336;2022-10-31T00:06:33;101032.97;;;15.32;100.00
30463;BME280;17256;43.618;25.336;2022-10-31T00:09:04;100881.16;;;14.60;100.00
30463;BME280;17256;43.618;25.336;2022-10-31T00:11:32;100817.72;;;14.27;100.00
30463;BME280;17256;43.618;25.336;2022-10-31T00:13:59;100921.66;;;14.86;100.00
30463;BME280;17256;43.618;25.336;2022-10-31T00:16:28;100770.91;;;13.87;99.87
30463;BME280;17256;43.618;25.336;2022-10-31T00:18:58;100678.50;;;13.32;100.00
30463;BME280;17256;43.618;25.336;2022-10-31T00:21:28;100662.59;;;13.27;100.00
30463;BME280;17256;43.618;25.336;2022-10-31T00:23:57;100820.13;;;14.03;100.00
30463;BME280;17256;43.618;25.336;2022-10-31T00:26:30;100590.34;;;12.72;100.00
30463;BME280;17256;43.618;25.336;2022-10-31T00:28:58;100643.13;;;12.96;100.00
30463;BME280;17256;43.618;25.336;2022-10-31T00:31:27;101045.03;;;15.45;100.00
30463;BME280;17256;43.618;25.336;2022-10-31T00:33:57;100870.19;;;14.40;100.00
30463;BME280;17256;43.618;25.336;2022-10-31T00:36:28;100833.34;;;13.88;100.00
30463;BME280;17256;43.618;25.336;2022-10-31T00:38:58;100625.31;;;12.78;100.00
30463;BME280;17256;43.618;25.336;2022-10-31T00:41:25;100828.47;;;13.90;100.00
30463;BME280;17256;43.618;25.336;2022-10-31T00:44:07;101066.81;;;15.28;100.00
30463;BME280;17256;43.618;25.336;2022-10-31T00:46:55;100911.66;;;14.27;100.00
30463;BME280;17256;43.618;25.336;2022-10-31T00:49:23;100880.44;;;14.06;100.00
30463;BME280;17256;43.618;25.336;2022-10-31T00:51:57;100879.41;;;14.01;100.00
30463;BME280;17256;43.618;25.336;2022-10-31T00:54:27;101082.16;;;15.24;100.00
30463;BME280;17256;43.618;25.336;2022-10-31T00:56:54;100719.84;;;13.12;100.00
30463;BME280;17256;43.618;25.336;2022-10-31T00:59:39;101098.38;;;15.20;100.00
30463;BME280;17256;43.618;25.336;2022-10-31T01:02:23;101093.91;;;15.19;100.00
30463;BME280;17256;43.618;25.336;2022-10-31T01:04:58;100690.38;;;12.86;100.00
30463;BME280;17256;43.618;25.336;2022-10-31T01:07:24;100701.84;;;12.83;100.00
30463;BME280;17256;43.618;25.336;2022-10-31T01:09:53;100639.72;;;12.60;100.00
30463;BME280;17256;43.618;25.336;2022-10-31T01:12:19;100801.34;;;13.47;100.00
30463;BME280;17256;43.618;25.336;2022-10-31T01:15:39;100811.72;;;13.65;100.00
30463;BME280;17256;43.618;25.336;2022-10-31T01:18:07;100811.53;;;13.53;100.00
30463;BME280;17256;43.618;25.336;2022-10-31T01:20:33;100668.56;;;12.71;100.00
30463;BME280;17256;43.618;25.336;2022-10-31T01:23:00;101072.84;;;15.18;100.00
30463;BME280;17256;43.618;25.336;2022-10-31T01:25:28;100585.06;;;12.18;100.00
30463;BME280;17256;43.618;25.336;2022-10-31T01:27:56;100849.47;;;13.98;100.00
30463;BME280;17256;43.618;25.336;2022-10-31T01:30:26;101053.66;;;15.23;100.00
30463;BME280;17256;43.618;25.336;2022-10-31T01:32:55;100608.78;;;12.58;100.00
30463;BME280;17256;43.618;25.336;2022-10-31T01:35:22;100913.97;;;14.30;100.00
30463;BME280;17256;43.618;25.336;2022-10-31T01:37:48;101051.59;;;15.12;100.00
30463;BME280;17256;43.618;25.336;2022-10-31T01:40:42;100664.50;;;12.60;100.00
30463;BME280;17256;43.618;25.336;2022-10-31T01:44:02;100790.09;;;13.29;100.00
30463;BME280;17256;43.618;25.336;2022-10-31T01:46:54;101075.69;;;14.92;100.00
30463;BME280;17256;43.618;25.336;2022-10-31T01:50:32;101001.75;;;14.48;100.00
30463;BME280;17256;43.618;25.336;2022-10-31T01:53:36;100898.53;;;13.63;100.00
30463;BME280;17256;43.618;25.336;2022-10-31T01:56:13;100770.97;;;12.94;100.00
30463;BME280;17256;43.618;25.336;2022-10-31T01:58:48;100869.91;;;13.64;100.00
30463;BME280;17256;43.618;25.336;2022-10-31T02:01:31;100857.81;;;13.45;100.00
30463;BME280;17256;43.618;25.336;2022-10-31T02:04:06;100792.19;;;13.01;100.00
30463;BME280;17256;43.618;25.336;2022-10-31T02:09:51;100632.59;;;11.85;100.00
30463;BME280;17256;43.618;25.336;2022-10-31T02:12:32;100929.56;;;13.65;100.00
30463;BME280;17256;43.618;25.336;2022-10-31T02:15:23;100625.31;;;11.64;100.00
30463;BME280;17256;43.618;25.336;2022-10-31T02:18:52;100674.31;;;11.82;100.00
30463;BME280;17256;43.618;25.336;2022-10-31T02:21:49;101052.75;;;14.19;100.00
30463;BME280;17256;43.618;25.336;2022-10-31T02:31:40;101065.66;;;13.85;100.00
30463;BME280;17256;43.618;25.336;2022-10-31T02:37:48;100917.00;;;12.75;100.00
30463;BME280;17256;43.618;25.336;2022-10-31T02:41:13;101098.97;;;13.70;100.00
30463;BME280;17256;43.618;25.336;2022-10-31T02:44:08;101096.22;;;13.70;100.00
30463;BME280;17256;43.618;25.336;2022-10-31T02:46:59;101096.59;;;13.61;100.00
30463;BME280;17256;43.618;25.336;2022-10-31T02:52:52;100812.72;;;11.83;100.00
30463;BME280;17256;43.618;25.336;2022-10-31T02:56:18;101104.84;;;13.47;100.00
30463;BME280;17256;43.618;25.336;2022-10-31T02:59:18;101108.25;;;13.49;100.00
30463;BME280;17256;43.618;25.336;2022-10-31T03:08:55;100799.59;;;11.50;100.00
30463;BME280;17256;43.618;25.336;2022-10-31T03:11:51;100895.00;;;11.78;100.00
30463;BME280;17256;43.618;25.336;2022-10-31T03:15:00;100759.72;;;11.12;100.00
30463;BME280;17256;43.618;25.336;2022-10-31T03:17:38;101128.72;;;13.27;100.00
30463;BME280;17256;43.618;25.336;2022-10-31T03:20:59;100900.16;;;11.59;100.00
30463;BME280;17256;43.618;25.336;2022-10-31T03:24:44;100746.94;;;10.55;100.00
30463;BME280;17256;43.618;25.336;2022-10-31T03:27:50;101004.97;;;12.14;100.00
30463;BME280;17256;43.618;25.336;2022-10-31T03:30:56;101155.16;;;12.87;100.00
30463;BME280;17256;43.618;25.336;2022-10-31T03:33:29;101152.13;;;12.75;100.00
30463;BME280;17256;43.618;25.336;2022-10-31T03:36:05;100714.53;;;10.07;100.00
30463;BME280;17256;43.618;25.336;2022-10-31T03:39:07;100804.50;;;10.41;100.00
30463;BME280;17256;43.618;25.336;2022-10-31T03:42:09;101180.41;;;12.62;100.00
30463;BME280;17256;43.618;25.336;2022-10-31T03:45:15;100720.47;;;9.75;100.00
30463;BME280;17256;43.618;25.336;2022-10-31T03:48:43;100932.41;;;10.87;100.00
30463;BME280;17256;43.618;25.336;2022-10-31T03:55:42;101182.22;;;12.27;100.00
30463;BME280;17256;43.618;25.336;2022-10-31T04:02:45;100692.56;;;9.12;100.00
30463;BME280;17256;43.618;25.336;2022-10-31T04:06:04;100708.38;;;9.25;100.00
30463;BME280;17256;43.618;25.336;2022-10-31T04:09:23;100767.25;;;9.59;100.00
30463;BME280;17256;43.618;25.336;2022-10-31T04:13:01;101133.81;;;11.97;100.00
30463;BME280;17256;43.618;25.336;2022-10-31T04:16:29;100916.69;;;10.44;100.00
30463;BME280;17256;43.618;25.336;2022-10-31T04:19:26;100797.34;;;9.81;100.00
30463;BME280;17256;43.618;25.336;2022-10-31T04:22:34;100912.19;;;10.58;100.00
30463;BME280;17256;43.618;25.336;2022-10-31T04:25:33;100985.84;;;10.84;100.00
30463;BME280;17256;43.618;25.336;2022-10-31T04:31:58;100728.13;;;9.35;100.00
30463;BME280;17256;43.618;25.336;2022-10-31T04:34:57;101207.19;;;12.26;100.00
30463;BME280;17256;43.618;25.336;2022-10-31T04:37:53;100719.03;;;9.35;100.00
30463;BME280;17256;43.618;25.336;2022-10-31T04:40:46;100705.53;;;9.33;100.00
30463;BME280;17256;43.618;25.336;2022-10-31T04:43:34;101187.31;;;12.30;100.00
30463;BME280;17256;43.618;25.336;2022-10-31T04:46:51;101199.63;;;12.35;100.00
30463;BME280;17256;43.618;25.336;2022-10-31T04:50:13;100750.63;;;9.60;100.00
30463;BME280;17256;43.618;25.336;2022-10-31T04:53:21;100947.88;;;10.73;100.00
30463;BME280;17256;43.618;25.336;2022-10-31T04:56:11;100746.00;;;9.75;100.00
30463;BME280;17256;43.618;25.336;2022-10-31T04:58:50;100698.81;;;9.50;100.00
30463;BME280;17256;43.618;25.336;2022-10-31T05:02:04;101196.28;;;12.60;100.00
30463;BME280;17256;43.618;25.336;2022-10-31T05:05:08;101199.31;;;12.66;100.00
30463;BME280;17256;43.618;25.336;2022-10-31T05:08:14;100752.97;;;9.93;100.00
30463;BME280;17256;43.618;25.336;2022-10-31T05:11:19;100981.28;;;11.27;100.00
30463;BME280;17256;43.618;25.336;2022-10-31T05:14:29;101204.75;;;12.59;100.00
30463;BME280;17256;43.618;25.336;2022-10-31T05:17:54;100796.28;;;9.97;100.00
30463;BME280;17256;43.618;25.336;2022-10-31T05:21:06;101238.25;;;12.84;100.00
30463;BME280;17256;43.618;25.336;2022-10-31T05:24:42;101212.59;;;12.83;100.00
30463;BME280;17256;43.618;25.336;2022-10-31T05:27:58;101215.13;;;13.06;100.00
30463;BME280;17256;43.618;25.336;2022-10-31T05:30:49;101092.94;;;12.43;100.00
30463;BME280;17256;43.618;25.336;2022-10-31T05:33:18;101232.50;;;13.28;100.00
30463;BME280;17256;43.618;25.336;2022-10-31T05:36:06;101265.53;;;13.49;100.00
30463;BME280;17256;43.618;25.336;2022-10-31T05:38:54;100933.72;;;11.97;100.00
30463;BME280;17256;43.618;25.336;2022-10-31T05:41:29;101130.53;;;13.48;100.00
30463;BME280;17256;43.618;25.336;2022-10-31T05:44:16;101162.50;;;13.77;100.00
30463;BME280;17256;43.618;25.336;2022-10-31T05:47:13;101091.28;;;13.52;100.00
30463;BME280;17256;43.618;25.336;2022-10-31T05:49:56;100925.69;;;12.72;100.00
30463;BME280;17256;43.618;25.336;2022-10-31T05:53:09;101245.63;;;14.83;100.00
30463;BME280;17256;43.618;25.336;2022-10-31T05:55:44;100957.00;;;13.12;100.00
30463;BME280;17256;43.618;25.336;2022-10-31T05:58:19;101166.31;;;14.43;100.00
30463;BME280;17256;43.618;25.336;2022-10-31T06:05:11;101252.44;;;15.39;100.00
30463;BME280;17256;43.618;25.336;2022-10-31T06:08:35;100882.41;;;13.33;100.00
30463;BME280;17256;43.618;25.336;2022-10-31T06:11:10;101041.50;;;14.46;100.00
30463;BME280;17256;43.618;25.336;2022-10-31T06:13:58;100998.16;;;14.14;100.00
30463;BME280;17256;43.618;25.336;2022-10-31T06:16:36;101011.31;;;13.85;100.00
30463;BME280;17256;43.618;25.336;2022-10-31T06:19:24;101282.03;;;15.19;100.00
30463;BME280;17256;43.618;25.336;2022-10-31T06:21:51;100914.59;;;12.58;100.00
30463;BME280;17256;43.618;25.336;2022-10-31T06:24:23;100831.59;;;12.20;100.00
30463;BME280;17256;43.618;25.336;2022-10-31T06:27:22;101271.19;;;14.91;100.00
30463;BME280;17256;43.618;25.336;2022-10-31T06:31:05;100856.25;;;12.00;100.00
30463;BME280;17256;43.618;25.336;2022-10-31T06:36:59;101111.03;;;13.63;100.00
30463;BME280;17256;43.618;25.336;2022-10-31T06:40:21;101009.06;;;13.28;100.00
30463;BME280;17256;43.618;25.336;2022-10-31T06:43:18;100975.97;;;13.28;100.00
30463;BME280;17256;43.618;25.336;2022-10-31T06:46:05;100972.22;;;13.75;100.00
30463;BME280;17256;43.618;25.336;2022-10-31T06:49:09;101227.53;;;15.26;100.00
30463;BME280;17256;43.618;25.336;2022-10-31T06:51:58;101035.97;;;14.00;100.00
30463;BME280;17256;43.618;25.336;2022-10-31T06:54:27;101008.13;;;14.28;100.00
30463;BME280;17256;43.618;25.336;2022-10-31T06:56:55;101145.41;;;15.20;100.00
30463;BME280;17256;43.618;25.336;2022-10-31T06:59:31;101099.31;;;14.74;100.00
30463;BME280;17256;43.618;25.336;2022-10-31T07:02:18;101228.16;;;15.28;100.00
30463;BME280;17256;43.618;25.336;2022-10-31T07:04:48;101296.72;;;15.66;100.00
30463;BME280;17256;43.618;25.336;2022-10-31T07:07:17;101290.69;;;15.95;100.00
30463;BME280;17256;43.618;25.336;2022-10-31T07:09:53;100915.75;;;13.91;100.00
30463;BME280;17256;43.618;25.336;2022-10-31T07:12:35;101020.88;;;14.62;98.33
30463;BME280;17256;43.618;25.336;2022-10-31T07:15:09;101051.22;;;14.89;97.30
30463;BME280;17256;43.618;25.336;2022-10-31T07:17:42;101271.94;;;15.91;98.62
30463;BME280;17256;43.618;25.336;2022-10-31T07:20:26;100909.78;;;13.81;97.77
30463;BME280;17256;43.618;25.336;2022-10-31T07:22:55;101039.72;;;14.92;96.47
30463;BME280;17256;43.618;25.336;2022-10-31T07:25:24;100863.06;;;13.93;95.47
30463;BME280;17256;43.618;25.336;2022-10-31T07:28:18;101078.72;;;15.35;94.21
30463;BME280;17256;43.618;25.336;2022-10-31T07:30:59;100898.66;;;14.40;93.55
30463;BME280;17256;43.618;25.336;2022-10-31T07:33:33;100870.84;;;14.29;92.68
30463;BME280;17256;43.618;25.336;2022-10-31T07:36:22;101064.53;;;16.01;89.97
30463;BME280;17256;43.618;25.336;2022-10-31T07:38:54;100894.13;;;15.35;86.35
30463;BME280;17256;43.618;25.336;2022-10-31T07:41:38;101158.13;;;17.30;83.45
30463;BME280;17256;43.618;25.336;2022-10-31T07:44:31;101117.28;;;17.37;81.22
30463;BME280;17256;43.618;25.336;2022-10-31T07:47:21;100855.22;;;15.87;79.39
30463;BME280;17256;43.618;25.336;2022-10-31T07:50:24;101158.94;;;18.04;77.66
30463;BME280;17256;43.618;25.336;2022-10-31T07:53:20;101289.91;;;18.92;75.71
30463;BME280;17256;43.618;25.336;2022-10-31T07:55:58;100975.59;;;16.96;75.56
30463;BME280;17256;43.618;25.336;2022-10-31T07:58:30;101298.03;;;19.05;76.14
30463;BME280;17256;43.618;25.336;2022-10-31T08:01:08;101128.06;;;18.12;74.20
30463;BME280;17256;43.618;25.336;2022-10-31T08:03:50;101106.91;;;18.11;72.89
30463;BME280;17256;43.618;25.336;2022-10-31T08:06:52;101197.88;;;18.64;71.99
30463;BME280;17256;43.618;25.336;2022-10-31T08:09:44;101057.84;;;17.75;71.78
30463;BME280;17256;43.618;25.336;2022-10-31T08:12:29;101049.84;;;18.08;71.50
30463;BME280;17256;43.618;25.336;2022-10-31T08:14:57;101091.22;;;18.28;73.22
30463;BME280;17256;43.618;25.336;2022-10-31T08:17:27;101235.84;;;19.12;75.46
30463;BME280;17256;43.618;25.336;2022-10-31T08:20:05;101076.22;;;18.29;75.22
30463;BME280;17256;43.618;25.336;2022-10-31T08:22:41;101317.03;;;19.97;74.10
30463;BME280;17256;43.618;25.336;2022-10-31T08:25:13;101035.88;;;18.38;73.50
30463;BME280;17256;43.618;25.336;2022-10-31T08:27:49;101298.88;;;19.83;74.08
30463;BME280;17256;43.618;25.336;2022-10-31T08:30:17;101133.59;;;18.54;75.48
30463;BME280;17256;43.618;25.336;2022-10-31T08:33:15;100978.34;;;17.74;73.97
30463;BME280;17256;43.618;25.336;2022-10-31T08:36:06;101314.72;;;19.94;73.36
30463;BME280;17256;43.618;25.336;2022-10-31T08:39:06;101033.72;;;18.40;70.62
30463;BME280;17256;43.618;25.336;2022-10-31T08:44:34;101067.00;;;18.70;69.21
30463;BME280;17256;43.618;25.336;2022-10-31T08:47:04;101129.91;;;19.06;70.30
30463;BME280;17256;43.618;25.336;2022-10-31T08:50:29;101208.84;;;19.71;69.35
30463;BME280;17256;43.618;25.336;2022-10-31T08:53:36;101287.81;;;20.40;67.99
30463;BME280;17256;43.618;25.336;2022-10-31T08:56:47;101295.03;;;20.64;67.27
30463;BME280;17256;43.618;25.336;2022-10-31T08:59:32;101309.38;;;20.56;66.67
30463;BME280;17256;43.618;25.336;2022-10-31T09:02:43;101307.78;;;20.20;68.40
30463;BME280;17256;43.618;25.336;2022-10-31T09:05:40;101074.50;;;18.93;68.45
30463;BME280;17256;43.618;25.336;2022-10-31T09:08:42;100913.66;;;17.97;67.63
30463;BME280;17256;43.618;25.336;2022-10-31T09:11:16;101301.56;;;20.70;66.28
30463;BME280;17256;43.618;25.336;2022-10-31T09:14:30;100965.25;;;18.86;64.80
30463;BME280;17256;43.618;25.336;2022-10-31T09:17:45;101061.09;;;19.42;65.09
30463;BME280;17256;43.618;25.336;2022-10-31T09:20:28;101011.38;;;19.34;64.91
30463;BME280;17256;43.618;25.336;2022-10-31T09:23:17;101175.09;;;20.52;63.76
30463;BME280;17256;43.618;25.336;2022-10-31T09:26:01;101277.41;;;21.37;62.11
30463;BME280;17256;43.618;25.336;2022-10-31T09:29:23;101301.34;;;21.50;61.75
30463;BME280;17256;43.618;25.336;2022-10-31T09:32:33;101050.34;;;20.19;61.26
30463;BME280;17256;43.618;25.336;2022-10-31T09:35:12;101310.22;;;22.02;60.65
30463;BME280;17256;43.618;25.336;2022-10-31T09:38:18;101088.75;;;20.96;60.06
30463;BME280;17256;43.618;25.336;2022-10-31T09:48:44;100974.06;;;20.42;59.35
30463;BME280;17256;43.618;25.336;2022-10-31T09:52:33;101271.59;;;22.38;58.72
30463;BME280;17256;43.618;25.336;2022-10-31T09:56:17;101297.81;;;22.81;57.20
30463;BME280;17256;43.618;25.336;2022-10-31T09:59:40;101281.16;;;22.69;57.14
30463;BME280;17256;43.618;25.336;2022-10-31T10:06:56;101030.63;;;21.32;56.82
30463;BME280;17256;43.618;25.336;2022-10-31T10:10:25;101271.28;;;22.61;57.27
30463;BME280;17256;43.618;25.336;2022-10-31T10:14:36;101026.31;;;21.24;57.46
30463;BME280;17256;43.618;25.336;2022-10-31T10:26:25;101101.44;;;22.08;56.30
30463;BME280;17256;43.618;25.336;2022-10-31T10:30:26;100894.72;;;20.77;56.57
30463;BME280;17256;43.618;25.336;2022-10-31T10:33:42;101255.63;;;23.19;55.83
30463;BME280;17256;43.618;25.336;2022-10-31T10:37:40;101060.34;;;22.14;55.80
30463;BME280;17256;43.618;25.336;2022-10-31T10:41:09;100925.22;;;21.27;56.59
30463;BME280;17256;43.618;25.336;2022-10-31T10:44:40;101250.19;;;23.40;56.17
30463;BME280;17256;43.618;25.336;2022-10-31T10:48:20;100888.84;;;21.49;55.22
30463;BME280;17256;43.618;25.336;2022-10-31T10:51:52;100922.94;;;21.46;55.59
30463;BME280;17256;43.618;25.336;2022-10-31T10:58:43;101252.91;;;23.29;56.23
30463;BME280;17256;43.618;25.336;2022-10-31T11:01:52;100950.84;;;21.73;55.05
30463;BME280;17256;43.618;25.336;2022-10-31T11:04:33;101236.06;;;23.61;55.31
30463;BME280;17256;43.618;25.336;2022-10-31T11:07:10;101241.44;;;23.68;55.66
30463;BME280;17256;43.618;25.336;2022-10-31T11:09:45;101235.56;;;23.75;54.81
30463;BME280;17256;43.618;25.336;2022-10-31T11:12:28;101035.59;;;22.64;54.54
30463;BME280;17256;43.618;25.336;2022-10-31T11:15:23;101053.59;;;22.79;54.16
30463;BME280;17256;43.618;25.336;2022-10-31T11:17:56;101018.78;;;22.59;54.76
30463;BME280;17256;43.618;25.336;2022-10-31T11:20:51;101228.06;;;23.80;54.44
30463;BME280;17256;43.618;25.336;2022-10-31T11:23:24;101233.72;;;23.96;54.24
30463;BME280;17256;43.618;25.336;2022-10-31T11:26:19;100895.16;;;21.98;54.03
30463;BME280;17256;43.618;25.336;2022-10-31T11:28:57;100989.72;;;22.70;54.43
30463;BME280;17256;43.618;25.336;2022-10-31T11:31:49;101212.38;;;23.84;54.21
30463;BME280;17256;43.618;25.336;2022-10-31T11:34:36;100881.75;;;22.00;54.40
30463;BME280;17256;43.618;25.336;2022-10-31T11:37:26;101074.97;;;23.32;53.59
30463;BME280;17256;43.618;25.336;2022-10-31T11:40:23;101211.38;;;24.16;53.71
30463;BME280;17256;43.618;25.336;2022-10-31T11:42:54;101087.75;;;23.60;53.14
30463;BME280;17256;43.618;25.336;2022-10-31T11:45:29;101194.94;;;24.45;53.11
30463;BME280;17256;43.618;25.336;2022-10-31T11:48:25;100924.63;;;22.95;52.57
30463;BME280;17256;43.618;25.336;2022-10-31T11:50:57;101128.59;;;24.23;52.36
30463;BME280;17256;43.618;25.336;2022-10-31T11:53:36;100883.63;;;22.74;51.61
30463;BME280;17256;43.618;25.336;2022-10-31T11:56:37;100862.75;;;22.45;52.49
30463;BME280;17256;43.618;25.336;2022-10-31T11:59:30;101178.41;;;24.59;51.93
30463;BME280;17256;43.618;25.336;2022-10-31T12:02:14;100845.44;;;22.48;52.27
30463;BME280;17256;43.618;25.336;2022-10-31T12:05:32;100947.75;;;23.33;52.57
30463;BME280;17256;43.618;25.336;2022-10-31T12:08:19;101172.22;;;24.67;52.49
30463;BME280;17256;43.618;25.336;2022-10-31T12:15:35;101046.81;;;23.64;52.32
30463;BME280;17256;43.618;25.336;2022-10-31T12:30:16;100870.63;;;22.48;52.38
30463;BME280;17256;43.618;25.336;2022-10-31T12:39:28;101163.56;;;23.85;53.90
30463;BME280;17256;43.618;25.336;2022-10-31T12:52:03;101170.13;;;23.12;55.30
30463;BME280;17256;43.618;25.336;2022-10-31T12:57:45;101043.38;;;22.57;55.08
30463;BME280;17256;43.618;25.336;2022-10-31T13:00:18;101055.56;;;22.78;55.06
30463;BME280;17256;43.618;25.336;2022-10-31T13:05:44;100967.00;;;22.25;54.77
30463;BME280;17256;43.618;25.336;2022-10-31T13:08:45;101176.38;;;23.71;54.88
30463;BME280;17256;43.618;25.336;2022-10-31T13:11:45;101172.44;;;23.62;54.83
30463;BME280;17256;43.618;25.336;2022-10-31T13:17:56;101023.25;;;22.60;55.54
30463;BME280;17256;43.618;25.336;2022-10-31T13:20:44;101078.50;;;22.75;55.90
30463;BME280;17256;43.618;25.336;2022-10-31T13:23:33;101185.50;;;23.51;56.20
30463;BME280;17256;43.618;25.336;2022-10-31T13:26:15;101084.66;;;22.77;56.01
30463;BME280;17256;43.618;25.336;2022-10-31T13:29:23;100861.66;;;21.12;56.27
30463;BME280;17256;43.618;25.336;2022-10-31T13:32:07;100850.00;;;21.20;56.98
30463;BME280;17256;43.618;25.336;2022-10-31T13:34:41;101048.84;;;22.42;56.96
30463;BME280;17256;43.618;25.336;2022-10-31T13:38:04;100940.97;;;21.60;57.75
30463;BME280;17256;43.618;25.336;2022-10-31T13:42:02;101026.78;;;22.14;58.12
30463;BME280;17256;43.618;25.336;2022-10-31T13:45:24;100963.41;;;21.70;58.75
30463;BME280;17256;43.618;25.336;2022-10-31T13:48:18;101109.88;;;22.45;59.60
30463;BME280;17256;43.618;25.336;2022-10-31T13:51:08;100818.41;;;20.66;59.87
30463;BME280;17256;43.618;25.336;2022-10-31T13:56:35;100952.31;;;21.27;60.35
30463;BME280;17256;43.618;25.336;2022-10-31T13:59:28;100957.38;;;21.30;61.38
30463;BME280;17256;43.618;25.336;2022-10-31T14:02:12;101031.41;;;21.76;60.93
30463;BME280;17256;43.618;25.336;2022-10-31T14:05:36;100867.47;;;20.62;61.73
30463;BME280;17256;43.618;25.336;2022-10-31T14:09:01;101008.88;;;21.61;62.23
30463;BME280;17256;43.618;25.336;2022-10-31T14:11:39;101041.78;;;21.80;62.70
30463;BME280;17256;43.618;25.336;2022-10-31T14:18:39;100994.63;;;21.35;62.82
30463;BME280;17256;43.618;25.336;2022-10-31T14:21:53;100944.97;;;20.99;63.59
30463;BME280;17256;43.618;25.336;2022-10-31T14:24:35;100820.47;;;19.93;63.67
30463;BME280;17256;43.618;25.336;2022-10-31T14:27:42;100972.63;;;20.78;64.63
30463;BME280;17256;43.618;25.336;2022-10-31T14:30:21;101026.50;;;21.17;64.34
30463;BME280;17256;43.618;25.336;2022-10-31T14:32:58;100995.44;;;20.92;64.14
30463;BME280;17256;43.618;25.336;2022-10-31T14:36:00;101186.53;;;21.95;65.34
30463;BME280;17256;43.618;25.336;2022-10-31T14:39:29;100891.84;;;20.11;65.68
30463;BME280;17256;43.618;25.336;2022-10-31T14:45:04;101174.91;;;21.60;66.41
30463;BME280;17256;43.618;25.336;2022-10-31T14:50:48;101173.94;;;21.32;67.78
30463;BME280;17256;43.618;25.336;2022-10-31T14:53:35;100829.38;;;19.12;67.18
30463;BME280;17256;43.618;25.336;2022-10-31T14:56:10;100964.16;;;19.84;67.90
30463;BME280;17256;43.618;25.336;2022-10-31T14:58:44;100824.91;;;18.82;69.04
30463;BME280;17256;43.618;25.336;2022-10-31T15:01:36;100751.19;;;18.28;69.53
30463;BME280;17256;43.618;25.336;2022-10-31T15:04:17;100991.91;;;19.62;69.42
30463;BME280;17256;43.618;25.336;2022-10-31T15:06:51;100789.00;;;18.40;69.51
30463;BME280;17256;43.618;25.336;2022-10-31T15:09:31;100858.34;;;18.70;69.99
30463;BME280;17256;43.618;25.336;2022-10-31T15:12:41;101168.59;;;20.47;70.06
30463;BME280;17256;43.618;25.336;2022-10-31T15:15:25;101177.25;;;20.34;70.05
30463;BME280;17256;43.618;25.336;2022-10-31T15:18:04;101004.88;;;19.17;71.26
30463;BME280;17256;43.618;25.336;2022-10-31T15:20:58;101022.28;;;19.24;71.22
30463;BME280;17256;43.618;25.336;2022-10-31T15:23:29;100990.56;;;18.85;71.59
30463;BME280;17256;43.618;25.336;2022-10-31T15:26:03;100764.44;;;17.39;71.72
30463;BME280;17256;43.618;25.336;2022-10-31T15:28:35;100875.72;;;17.91;71.93
30463;BME280;17256;43.618;25.336;2022-10-31T15:31:18;100963.06;;;18.53;71.95
30463;BME280;17256;43.618;25.336;2022-10-31T15:33:52;101005.81;;;18.70;72.19
30463;BME280;17256;43.618;25.336;2022-10-31T15:36:48;100787.22;;;17.29;72.61
30463;BME280;17256;43.618;25.336;2022-10-31T15:39:44;101042.19;;;18.81;73.38
30463;BME280;17256;43.618;25.336;2022-10-31T15:42:42;100820.91;;;17.33;74.02
30463;BME280;17256;43.618;25.336;2022-10-31T15:45:32;101184.88;;;19.34;75.11
30463;BME280;17256;43.618;25.336;2022-10-31T15:48:38;100970.69;;;17.88;75.48
30463;BME280;17256;43.618;25.336;2022-10-31T15:51:37;101180.50;;;19.27;75.40
30463;BME280;17256;43.618;25.336;2022-10-31T15:54:28;100987.91;;;17.78;76.61
30463;BME280;17256;43.618;25.336;2022-10-31T15:57:19;100816.16;;;16.80;76.87
30463;BME280;17256;43.618;25.336;2022-10-31T16:03:40;100839.19;;;16.80;77.51
30463;BME280;17256;43.618;25.336;2022-10-31T16:06:28;100846.38;;;16.88;77.85
30463;BME280;17256;43.618;25.336;2022-10-31T16:09:27;101066.56;;;18.20;78.35
30463;BME280;17256;43.618;25.336;2022-10-31T16:12:20;101206.53;;;18.97;78.45
30463;BME280;17256;43.618;25.336;2022-10-31T16:14:59;100977.03;;;17.46;79.47
30463;BME280;17256;43.618;25.336;2022-10-31T16:17:42;100843.94;;;16.61;79.99
30463;BME280;17256;43.618;25.336;2022-10-31T16:20:25;100844.22;;;16.53;80.61
30463;BME280;17256;43.618;25.336;2022-10-31T16:23:18;101218.47;;;18.74;81.24
30463;BME280;17256;43.618;25.336;2022-10-31T16:26:05;100833.09;;;16.42;81.06
30463;BME280;17256;43.618;25.336;2022-10-31T16:28:54;101181.34;;;18.39;81.13
30463;BME280;17256;43.618;25.336;2022-10-31T16:31:53;101231.03;;;18.77;80.59
30463;BME280;17256;43.618;25.336;2022-10-31T16:34:23;100832.09;;;16.36;80.48
30463;BME280;17256;43.618;25.336;2022-10-31T16:37:05;101144.97;;;18.10;81.53
30463;BME280;17256;43.618;25.336;2022-10-31T16:39:45;100872.78;;;16.54;80.31
30463;BME280;17256;43.618;25.336;2022-10-31T16:42:18;100836.69;;;16.42;80.66
30463;BME280;17256;43.618;25.336;2022-10-31T16:44:50;101259.13;;;18.75;81.89
30463;BME280;17256;43.618;25.336;2022-10-31T16:47:30;100930.69;;;16.87;81.89